sensor_id;sensor_type;location;lat;lon;timestamp;temperature;humidity
22917;DHT22;11624;53.250;7.456;2023-02-28T00:01:35;11.43;52.62
22917;DHT22;11624;53.250;7.456;2023-02-28T00:04:04;11.42;52.54
22917;DHT22;11624;53.250;7.456;2023-02-28T00:06:33;11.39;52.63
22917;DHT22;11624;53.250;7.456;2023-02-28T00:09:01;11.39;52.68
22917;DHT22;11624;53.250;7.456;2023-02-28T00:11:29;11.40;52.69
22917;DHT22;11624;53.250;7.456;2023-02-28T00:13:59;11.41;52.65
22917;DHT22;11624;53.250;7.456;2023-02-28T00:16:28;11.43;52.59
22917;DHT22;11624;53.250;7.456;2023-02-28T00:18:56;11.42;52.59
22917;DHT22;11624;53.250;7.456;2023-02-28T00:21:26;11.41;52.64
22917;DHT22;11624;53.250;7.456;2023-02-28T00:23:54;11.40;52.67
22917;DHT22;11624;53.250;7.456;2023-02-28T00:26:23;11.41;52.68
22917;DHT22;11624;53.250;7.456;2023-02-28T00:28:51;11.42;52.67
22917;DHT22;11624;53.250;7.456;2023-02-28T00:31:22;11.39;52.72
22917;DHT22;11624;53.250;7.456;2023-02-28T00:34:11;11.36;52.39
22917;DHT22;11624;53.250;7.456;2023-02-28T00:36:41;11.40;52.68
22917;DHT22;11624;53.250;7.456;2023-02-28T00:39:12;11.37;52.75
22917;DHT22;11624;53.250;7.456;2023-02-28T00:41:40;11.39;52.68
22917;DHT22;11624;53.250;7.456;2023-02-28T00:44:08;11.40;52.72
22917;DHT22;11624;53.250;7.456;2023-02-28T00:46:36;11.40;52.75
22917;DHT22;11624;53.250;7.456;2023-02-28T00:49:04;11.41;52.69
22917;DHT22;11624;53.250;7.456;2023-02-28T00:51:32;11.41;52.68
22917;DHT22;11624;53.250;7.456;2023-02-28T00:54:01;11.40;52.67
22917;DHT22;11624;53.250;7.456;2023-02-28T00:56:30;11.40;52.69
22917;DHT22;11624;53.250;7.456;2023-02-28T00:58:58;11.40;52.70
22917;DHT22;11624;53.250;7.456;2023-02-28T01:01:26;11.41;52.67
22917;DHT22;11624;53.250;7.456;2023-02-28T01:03:54;11.42;52.69
22917;DHT22;11624;53.250;7.456;2023-02-28T01:06:22;11.40;52.70
22917;DHT22;11624;53.250;7.456;2023-02-28T01:08:50;11.33;52.73
22917;DHT22;11624;53.250;7.456;2023-02-28T01:11:20;11.33;52.72
22917;DHT22;11624;53.250;7.456;2023-02-28T01:13:48;11.33;52.61
22917;DHT22;11624;53.250;7.456;2023-02-28T01:16:16;11.32;52.65
22917;DHT22;11624;53.250;7.456;2023-02-28T01:18:44;11.32;52.69
22917;DHT22;11624;53.250;7.456;2023-02-28T01:21:14;11.31;52.72
22917;DHT22;11624;53.250;7.456;2023-02-28T01:23:44;11.28;52.77
22917;DHT22;11624;53.250;7.456;2023-02-28T01:26:20;11.26;52.57
22917;DHT22;11624;53.250;7.456;2023-02-28T01:28:49;11.26;52.78
22917;DHT22;11624;53.250;7.456;2023-02-28T01:31:19;11.26;52.77
22917;DHT22;11624;53.250;7.456;2023-02-28T01:33:48;11.24;52.79
22917;DHT22;11624;53.250;7.456;2023-02-28T01:36:18;11.24;52.77
22917;DHT22;11624;53.250;7.456;2023-02-28T01:38:47;11.23;52.76
22917;DHT22;11624;53.250;7.456;2023-02-28T01:41:18;11.19;52.77
22917;DHT22;11624;53.250;7.456;2023-02-28T01:43:58;11.15;52.51
22917;DHT22;11624;53.250;7.456;2023-02-28T01:46:26;11.17;52.85
22917;DHT22;11624;53.250;7.456;2023-02-28T01:49:00;11.14;52.70
22917;DHT22;11624;53.250;7.456;2023-02-28T01:51:34;11.12;52.83
22917;DHT22;11624;53.250;7.456;2023-02-28T01:54:08;11.12;52.94
22917;DHT22;11624;53.250;7.456;2023-02-28T01:56:44;11.10;52.95
22917;DHT22;11624;53.250;7.456;2023-02-28T01:59:23;11.10;52.75
22917;DHT22;11624;53.250;7.456;2023-02-28T02:01:52;11.10;53.04
22917;DHT22;11624;53.250;7.456;2023-02-28T02:04:22;11.12;53.00
22917;DHT22;11624;53.250;7.456;2023-02-28T02:06:51;11.11;53.02
22917;DHT22;11624;53.250;7.456;2023-02-28T02:09:20;11.11;53.04
22917;DHT22;11624;53.250;7.456;2023-02-28T02:11:48;11.10;53.07
22917;DHT22;11624;53.250;7.456;2023-02-28T02:14:35;11.05;52.80
22917;DHT22;11624;53.250;7.456;2023-02-28T02:17:16;11.05;52.87
22917;DHT22;11624;53.250;7.456;2023-02-28T02:20:16;11.03;52.85
22917;DHT22;11624;53.250;7.456;2023-02-28T02:25:56;11.00;53.27
22917;DHT22;11624;53.250;7.456;2023-02-28T02:28:44;10.96;53.01
22917;DHT22;11624;53.250;7.456;2023-02-28T02:34:34;10.94;52.98
22917;DHT22;11624;53.250;7.456;2023-02-28T02:37:13;10.93;53.16
22917;DHT22;11624;53.250;7.456;2023-02-28T02:39:48;10.93;53.31
22917;DHT22;11624;53.250;7.456;2023-02-28T02:42:23;10.94;53.44
22917;DHT22;11624;53.250;7.456;2023-02-28T02:44:58;10.94;53.51
22917;DHT22;11624;53.250;7.456;2023-02-28T02:47:29;10.97;53.63
22917;DHT22;11624;53.250;7.456;2023-02-28T02:50:02;10.98;53.43
22917;DHT22;11624;53.250;7.456;2023-02-28T02:52:36;10.98;53.49
22917;DHT22;11624;53.250;7.456;2023-02-28T02:55:08;10.94;53.51
22917;DHT22;11624;53.250;7.456;2023-02-28T02:57:42;10.92;53.58
22917;DHT22;11624;53.250;7.456;2023-02-28T03:00:15;10.93;53.69
22917;DHT22;11624;53.250;7.456;2023-02-28T03:02:47;10.92;53.76
22917;DHT22;11624;53.250;7.456;2023-02-28T03:05:20;10.92;53.72
22917;DHT22;11624;53.250;7.456;2023-02-28T03:07:51;10.90;53.81
22917;DHT22;11624;53.250;7.456;2023-02-28T03:10:27;10.85;53.60
22917;DHT22;11624;53.250;7.456;2023-02-28T03:13:03;10.84;53.78
22917;DHT22;11624;53.250;7.456;2023-02-28T03:15:37;10.83;53.91
22917;DHT22;11624;53.250;7.456;2023-02-28T03:18:16;10.85;53.77
22917;DHT22;11624;53.250;7.456;2023-02-28T03:20:56;10.87;53.75
22917;DHT22;11624;53.250;7.456;2023-02-28T03:23:30;10.88;53.82
22917;DHT22;11624;53.250;7.456;2023-02-28T03:26:06;10.90;53.96
22917;DHT22;11624;53.250;7.456;2023-02-28T03:28:40;10.90;53.94
22917;DHT22;11624;53.250;7.456;2023-02-28T03:31:16;10.88;53.94
22917;DHT22;11624;53.250;7.456;2023-02-28T03:33:46;10.88;54.11
22917;DHT22;11624;53.250;7.456;2023-02-28T03:36:25;10.88;54.01
22917;DHT22;11624;53.250;7.456;2023-02-28T03:38:57;10.88;54.09
22917;DHT22;11624;53.250;7.456;2023-02-28T03:41:32;10.88;54.14
22917;DHT22;11624;53.250;7.456;2023-02-28T03:44:06;10.87;54.11
22917;DHT22;11624;53.250;7.456;2023-02-28T03:46:38;10.88;54.16
22917;DHT22;11624;53.250;7.456;2023-02-28T03:49:12;10.90;54.13
22917;DHT22;11624;53.250;7.456;2023-02-28T03:51:45;10.88;54.23
22917;DHT22;11624;53.250;7.456;2023-02-28T03:54:17;10.86;54.33
22917;DHT22;11624;53.250;7.456;2023-02-28T03:56:50;10.84;54.37
22917;DHT22;11624;53.250;7.456;2023-02-28T03:59:26;10.79;54.33
22917;DHT22;11624;53.250;7.456;2023-02-28T04:01:57;10.80;54.53
22917;DHT22;11624;53.250;7.456;2023-02-28T04:04:25;10.79;54.59
22917;DHT22;11624;53.250;7.456;2023-02-28T04:07:01;10.79;54.20
22917;DHT22;11624;53.250;7.456;2023-02-28T04:09:29;10.80;54.43
22917;DHT22;11624;53.250;7.456;2023-02-28T04:11:58;10.80;54.49
22917;DHT22;11624;53.250;7.456;2023-02-28T04:14:26;10.78;54.53
22917;DHT22;11624;53.250;7.456;2023-02-28T04:16:54;10.78;54.56
22917;DHT22;11624;53.250;7.456;2023-02-28T04:19:22;10.75;54.65
22917;DHT22;11624;53.250;7.456;2023-02-28T04:21:51;10.73;54.74
22917;DHT22;11624;53.250;7.456;2023-02-28T04:24:23;10.72;54.69
22917;DHT22;11624;53.250;7.456;2023-02-28T04:26:53;10.75;54.68
22917;DHT22;11624;53.250;7.456;2023-02-28T04:29:24;10.78;54.65
22917;DHT22;11624;53.250;7.456;2023-02-28T04:31:53;10.80;54.65
22917;DHT22;11624;53.250;7.456;2023-02-28T04:34:23;10.77;54.74
22917;DHT22;11624;53.250;7.456;2023-02-28T04:36:51;10.78;54.77
22917;DHT22;11624;53.250;7.456;2023-02-28T04:39:40;10.79;54.70
22917;DHT22;11624;53.250;7.456;2023-02-28T04:42:08;10.79;54.70
22917;DHT22;11624;53.250;7.456;2023-02-28T04:44:36;10.78;54.78
22917;DHT22;11624;53.250;7.456;2023-02-28T04:47:05;10.77;54.80
22917;DHT22;11624;53.250;7.456;2023-02-28T04:49:33;10.78;54.89
22917;DHT22;11624;53.250;7.456;2023-02-28T04:52:01;10.78;54.92
22917;DHT22;11624;53.250;7.456;2023-02-28T04:54:29;10.82;54.87
22917;DHT22;11624;53.250;7.456;2023-02-28T04:56:58;10.83;54.91
22917;DHT22;11624;53.250;7.456;2023-02-28T04:59:27;10.84;54.92
22917;DHT22;11624;53.250;7.456;2023-02-28T05:01:56;10.83;54.97
22917;DHT22;11624;53.250;7.456;2023-02-28T05:04:24;10.83;55.04
22917;DHT22;11624;53.250;7.456;2023-02-28T05:06:52;10.81;55.09
22917;DHT22;11624;53.250;7.456;2023-02-28T05:09:20;10.78;55.12
22917;DHT22;11624;53.250;7.456;2023-02-28T05:11:48;10.75;55.18
22917;DHT22;11624;53.250;7.456;2023-02-28T05:14:17;10.73;55.21
22917;DHT22;11624;53.250;7.456;2023-02-28T05:16:45;10.70;55.25
22917;DHT22;11624;53.250;7.456;2023-02-28T05:19:13;10.69;55.25
22917;DHT22;11624;53.250;7.456;2023-02-28T05:21:49;10.58;55.18
22917;DHT22;11624;53.250;7.456;2023-02-28T05:24:18;10.52;55.58
22917;DHT22;11624;53.250;7.456;2023-02-28T05:26:51;10.52;55.56
22917;DHT22;11624;53.250;7.456;2023-02-28T05:29:21;10.46;55.57
22917;DHT22;11624;53.250;7.456;2023-02-28T05:31:49;10.43;55.65
22917;DHT22;11624;53.250;7.456;2023-02-28T05:34:17;10.43;55.61
22917;DHT22;11624;53.250;7.456;2023-02-28T05:36:45;10.44;55.61
22917;DHT22;11624;53.250;7.456;2023-02-28T05:39:14;10.48;55.55
22917;DHT22;11624;53.250;7.456;2023-02-28T05:41:42;10.50;55.52
22917;DHT22;11624;53.250;7.456;2023-02-28T05:44:11;10.51;55.46
22917;DHT22;11624;53.250;7.456;2023-02-28T05:46:40;10.53;55.45
22917;DHT22;11624;53.250;7.456;2023-02-28T05:49:08;10.48;55.49
22917;DHT22;11624;53.250;7.456;2023-02-28T05:51:36;10.48;55.46
22917;DHT22;11624;53.250;7.456;2023-02-28T05:54:06;10.50;55.38
22917;DHT22;11624;53.250;7.456;2023-02-28T05:56:35;10.51;55.40
22917;DHT22;11624;53.250;7.456;2023-02-28T05:59:05;10.52;55.36
22917;DHT22;11624;53.250;7.456;2023-02-28T06:01:35;10.54;55.40
22917;DHT22;11624;53.250;7.456;2023-02-28T06:04:07;10.55;55.35
22917;DHT22;11624;53.250;7.456;2023-02-28T06:06:42;10.55;55.38
22917;DHT22;11624;53.250;7.456;2023-02-28T06:09:10;10.54;55.42
22917;DHT22;11624;53.250;7.456;2023-02-28T06:11:38;10.52;55.53
22917;DHT22;11624;53.250;7.456;2023-02-28T06:14:07;10.50;55.60
22917;DHT22;11624;53.250;7.456;2023-02-28T06:16:41;10.51;55.60
22917;DHT22;11624;53.250;7.456;2023-02-28T06:19:10;10.50;55.61
22917;DHT22;11624;53.250;7.456;2023-02-28T06:21:39;10.50;55.64
22917;DHT22;11624;53.250;7.456;2023-02-28T06:24:07;10.55;55.53
22917;DHT22;11624;53.250;7.456;2023-02-28T06:26:36;10.56;55.49
22917;DHT22;11624;53.250;7.456;2023-02-28T06:29:04;10.58;55.50
22917;DHT22;11624;53.250;7.456;2023-02-28T06:31:32;10.60;55.58
22917;DHT22;11624;53.250;7.456;2023-02-28T06:34:00;10.64;55.61
22917;DHT22;11624;53.250;7.456;2023-02-28T06:36:30;10.66;55.58
22917;DHT22;11624;53.250;7.456;2023-02-28T06:38:58;10.70;55.58
22917;DHT22;11624;53.250;7.456;2023-02-28T06:41:26;10.73;55.62
22917;DHT22;11624;53.250;7.456;2023-02-28T06:43:57;10.78;55.55
22917;DHT22;11624;53.250;7.456;2023-02-28T06:46:25;10.81;55.53
22917;DHT22;11624;53.250;7.456;2023-02-28T06:48:53;10.85;55.54
22917;DHT22;11624;53.250;7.456;2023-02-28T06:51:21;10.87;55.58
22917;DHT22;11624;53.250;7.456;2023-02-28T06:53:52;10.94;55.52
22917;DHT22;11624;53.250;7.456;2023-02-28T06:56:20;10.92;55.49
22917;DHT22;11624;53.250;7.456;2023-02-28T06:58:49;10.90;55.46
22917;DHT22;11624;53.250;7.456;2023-02-28T07:01:19;10.84;55.47
22917;DHT22;11624;53.250;7.456;2023-02-28T07:03:49;10.81;55.40
22917;DHT22;11624;53.250;7.456;2023-02-28T07:06:19;10.75;55.35
22917;DHT22;11624;53.250;7.456;2023-02-28T07:08:50;10.72;55.33
22917;DHT22;11624;53.250;7.456;2023-02-28T07:11:20;10.69;55.29
22917;DHT22;11624;53.250;7.456;2023-02-28T07:13:49;10.66;55.43
22917;DHT22;11624;53.250;7.456;2023-02-28T07:16:18;10.64;55.52
22917;DHT22;11624;53.250;7.456;2023-02-28T07:18:46;10.65;55.64
22917;DHT22;11624;53.250;7.456;2023-02-28T07:21:15;10.70;55.60
22917;DHT22;11624;53.250;7.456;2023-02-28T07:23:43;10.72;55.53
22917;DHT22;11624;53.250;7.456;2023-02-28T07:26:13;10.75;55.53
22917;DHT22;11624;53.250;7.456;2023-02-28T07:28:45;10.78;55.36
22917;DHT22;11624;53.250;7.456;2023-02-28T07:31:14;10.74;55.36
22917;DHT22;11624;53.250;7.456;2023-02-28T07:33:42;10.72;55.39
22917;DHT22;11624;53.250;7.456;2023-02-28T07:36:11;10.71;55.39
22917;DHT22;11624;53.250;7.456;2023-02-28T07:38:42;10.66;55.40
22917;DHT22;11624;53.250;7.456;2023-02-28T07:41:14;10.78;56.26
22917;DHT22;11624;53.250;7.456;2023-02-28T07:43:44;11.39;56.45
22917;DHT22;11624;53.250;7.456;2023-02-28T07:46:14;12.01;55.78
22917;DHT22;11624;53.250;7.456;2023-02-28T07:48:43;12.55;55.17
22917;DHT22;11624;53.250;7.456;2023-02-28T07:51:11;12.95;54.58
22917;DHT22;11624;53.250;7.456;2023-02-28T07:53:39;13.33;53.84
22917;DHT22;11624;53.250;7.456;2023-02-28T07:56:07;13.66;53.33
22917;DHT22;11624;53.250;7.456;2023-02-28T07:58:37;13.81;52.28
22917;DHT22;11624;53.250;7.456;2023-02-28T08:01:08;13.86;51.28
22917;DHT22;11624;53.250;7.456;2023-02-28T08:03:38;13.95;51.36
22917;DHT22;11624;53.250;7.456;2023-02-28T08:06:08;13.94;51.11
22917;DHT22;11624;53.250;7.456;2023-02-28T08:08:42;13.80;52.52
22917;DHT22;11624;53.250;7.456;2023-02-28T08:11:11;13.73;52.83
22917;DHT22;11624;53.250;7.456;2023-02-28T08:13:39;13.49;51.72
22917;DHT22;11624;53.250;7.456;2023-02-28T08:16:11;13.10;51.12
22917;DHT22;11624;53.250;7.456;2023-02-28T08:18:41;12.78;51.24
22917;DHT22;11624;53.250;7.456;2023-02-28T08:21:10;12.51;51.53
22917;DHT22;11624;53.250;7.456;2023-02-28T08:23:38;12.35;51.96
22917;DHT22;11624;53.250;7.456;2023-02-28T08:26:06;12.20;52.53
22917;DHT22;11624;53.250;7.456;2023-02-28T08:28:35;12.26;52.77
22917;DHT22;11624;53.250;7.456;2023-02-28T08:31:07;12.22;52.36
22917;DHT22;11624;53.250;7.456;2023-02-28T08:33:37;12.13;52.49
22917;DHT22;11624;53.250;7.456;2023-02-28T08:36:06;12.08;53.27
22917;DHT22;11624;53.250;7.456;2023-02-28T08:38:35;12.20;54.12
22917;DHT22;11624;53.250;7.456;2023-02-28T08:41:05;12.45;54.87
22917;DHT22;11624;53.250;7.456;2023-02-28T08:43:34;12.74;55.62
22917;DHT22;11624;53.250;7.456;2023-02-28T08:46:03;13.05;55.71
22917;DHT22;11624;53.250;7.456;2023-02-28T08:48:34;13.20;54.08
22917;DHT22;11624;53.250;7.456;2023-02-28T08:51:07;13.18;52.95
22917;DHT22;11624;53.250;7.456;2023-02-28T08:53:37;13.11;52.43
22917;DHT22;11624;53.250;7.456;2023-02-28T08:56:08;13.05;51.95
22917;DHT22;11624;53.250;7.456;2023-02-28T08:58:37;12.97;51.79
22917;DHT22;11624;53.250;7.456;2023-02-28T09:01:09;12.94;51.38
22917;DHT22;11624;53.250;7.456;2023-02-28T09:03:37;12.93;51.90
22917;DHT22;11624;53.250;7.456;2023-02-28T09:06:10;12.95;51.69
22917;DHT22;11624;53.250;7.456;2023-02-28T09:08:39;12.87;51.40
22917;DHT22;11624;53.250;7.456;2023-02-28T09:11:07;12.84;51.29
22917;DHT22;11624;53.250;7.456;2023-02-28T09:13:36;12.84;51.29
22917;DHT22;11624;53.250;7.456;2023-02-28T09:16:06;12.81;50.92
22917;DHT22;11624;53.250;7.456;2023-02-28T09:18:35;12.82;50.87
22917;DHT22;11624;53.250;7.456;2023-02-28T09:21:05;12.81;50.76
22917;DHT22;11624;53.250;7.456;2023-02-28T09:23:35;12.82;51.29
22917;DHT22;11624;53.250;7.456;2023-02-28T09:26:05;13.08;54.71
22917;DHT22;11624;53.250;7.456;2023-02-28T09:28:33;13.35;52.71
22917;DHT22;11624;53.250;7.456;2023-02-28T09:31:01;13.44;50.99
22917;DHT22;11624;53.250;7.456;2023-02-28T09:33:31;13.45;50.27
22917;DHT22;11624;53.250;7.456;2023-02-28T09:36:02;13.45;49.95
22917;DHT22;11624;53.250;7.456;2023-02-28T09:38:30;13.40;49.93
22917;DHT22;11624;53.250;7.456;2023-02-28T09:41:01;13.37;49.42
22917;DHT22;11624;53.250;7.456;2023-02-28T09:43:34;13.33;49.28
22917;DHT22;11624;53.250;7.456;2023-02-28T09:46:11;13.30;49.50
22917;DHT22;11624;53.250;7.456;2023-02-28T09:48:45;13.32;49.45
22917;DHT22;11624;53.250;7.456;2023-02-28T09:51:26;13.26;49.35
22917;DHT22;11624;53.250;7.456;2023-02-28T09:53:55;13.17;49.49
22917;DHT22;11624;53.250;7.456;2023-02-28T09:56:33;13.14;49.58
22917;DHT22;11624;53.250;7.456;2023-02-28T09:59:10;13.15;49.75
22917;DHT22;11624;53.250;7.456;2023-02-28T10:01:47;13.12;49.88
22917;DHT22;11624;53.250;7.456;2023-02-28T10:04:36;13.08;49.76
22917;DHT22;11624;53.250;7.456;2023-02-28T10:07:14;13.07;49.68
22917;DHT22;11624;53.250;7.456;2023-02-28T10:09:47;13.07;49.79
22917;DHT22;11624;53.250;7.456;2023-02-28T10:12:20;13.09;49.81
22917;DHT22;11624;53.250;7.456;2023-02-28T10:14:51;13.09;49.75
22917;DHT22;11624;53.250;7.456;2023-02-28T10:17:22;13.10;49.63
22917;DHT22;11624;53.250;7.456;2023-02-28T10:19:58;13.11;49.53
22917;DHT22;11624;53.250;7.456;2023-02-28T10:22:32;13.17;49.54
22917;DHT22;11624;53.250;7.456;2023-02-28T10:25:05;13.21;49.34
22917;DHT22;11624;53.250;7.456;2023-02-28T10:27:44;13.25;49.53
22917;DHT22;11624;53.250;7.456;2023-02-28T10:30:13;13.32;49.77
22917;DHT22;11624;53.250;7.456;2023-02-28T10:32:48;13.39;49.65
22917;DHT22;11624;53.250;7.456;2023-02-28T10:35:19;13.49;49.78
22917;DHT22;11624;53.250;7.456;2023-02-28T10:37:50;13.59;49.44
22917;DHT22;11624;53.250;7.456;2023-02-28T10:40:29;13.66;49.18
22917;DHT22;11624;53.250;7.456;2023-02-28T10:43:00;13.77;49.20
22917;DHT22;11624;53.250;7.456;2023-02-28T10:45:29;13.84;49.17
22917;DHT22;11624;53.250;7.456;2023-02-28T10:48:00;13.90;49.08
22917;DHT22;11624;53.250;7.456;2023-02-28T10:50:33;13.92;48.61
22917;DHT22;11624;53.250;7.456;2023-02-28T10:53:31;14.07;49.53
22917;DHT22;11624;53.250;7.456;2023-02-28T10:56:22;14.38;47.71
22917;DHT22;11624;53.250;7.456;2023-02-28T10:58:54;14.40;46.57
22917;DHT22;11624;53.250;7.456;2023-02-28T11:01:34;14.37;46.71
22917;DHT22;11624;53.250;7.456;2023-02-28T11:04:03;14.32;46.68
22917;DHT22;11624;53.250;7.456;2023-02-28T11:06:32;14.32;46.64
22917;DHT22;11624;53.250;7.456;2023-02-28T11:09:05;14.26;46.44
22917;DHT22;11624;53.250;7.456;2023-02-28T11:11:45;14.22;46.64
22917;DHT22;11624;53.250;7.456;2023-02-28T11:14:19;14.26;46.51
22917;DHT22;11624;53.250;7.456;2023-02-28T11:16:50;14.30;46.51
22917;DHT22;11624;53.250;7.456;2023-02-28T11:19:22;14.35;46.42
22917;DHT22;11624;53.250;7.456;2023-02-28T11:21:54;14.40;46.05
22917;DHT22;11624;53.250;7.456;2023-02-28T11:24:25;14.51;46.15
22917;DHT22;11624;53.250;7.456;2023-02-28T11:26:54;15.06;48.37
22917;DHT22;11624;53.250;7.456;2023-02-28T11:29:26;16.33;50.06
22917;DHT22;11624;53.250;7.456;2023-02-28T11:32:03;17.82;46.44
22917;DHT22;11624;53.250;7.456;2023-02-28T11:34:32;19.15;42.86
22917;DHT22;11624;53.250;7.456;2023-02-28T11:37:01;20.22;36.72
22917;DHT22;11624;53.250;7.456;2023-02-28T11:39:32;20.71;32.35
22917;DHT22;11624;53.250;7.456;2023-02-28T11:42:39;21.60;31.54
22917;DHT22;11624;53.250;7.456;2023-02-28T11:45:21;21.78;27.26
22917;DHT22;11624;53.250;7.456;2023-02-28T11:47:55;22.11;27.10
22917;DHT22;11624;53.250;7.456;2023-02-28T11:50:38;22.17;25.70
22917;DHT22;11624;53.250;7.456;2023-02-28T11:53:16;22.10;26.23
22917;DHT22;11624;53.250;7.456;2023-02-28T11:55:51;22.53;26.81
22917;DHT22;11624;53.250;7.456;2023-02-28T11:58:29;23.07;25.23
22917;DHT22;11624;53.250;7.456;2023-02-28T12:01:28;23.58;25.24
22917;DHT22;11624;53.250;7.456;2023-02-28T12:04:11;24.00;23.56
22917;DHT22;11624;53.250;7.456;2023-02-28T12:06:47;23.96;22.39
22917;DHT22;11624;53.250;7.456;2023-02-28T12:09:40;24.05;23.08
22917;DHT22;11624;53.250;7.456;2023-02-28T12:12:23;24.36;22.08
22917;DHT22;11624;53.250;7.456;2023-02-28T12:15:23;24.45;21.16
22917;DHT22;11624;53.250;7.456;2023-02-28T12:18:06;24.33;20.55
22917;DHT22;11624;53.250;7.456;2023-02-28T12:20:40;23.37;21.75
22917;DHT22;11624;53.250;7.456;2023-02-28T12:23:25;23.12;21.97
22917;DHT22;11624;53.250;7.456;2023-02-28T12:26:03;23.22;21.69
22917;DHT22;11624;53.250;7.456;2023-02-28T12:28:40;22.27;20.10
22917;DHT22;11624;53.250;7.456;2023-02-28T12:31:14;21.57;22.69
22917;DHT22;11624;53.250;7.456;2023-02-28T12:33:48;22.08;23.25
22917;DHT22;11624;53.250;7.456;2023-02-28T12:36:20;22.80;22.17
22917;DHT22;11624;53.250;7.456;2023-02-28T12:38:54;23.02;21.82
22917;DHT22;11624;53.250;7.456;2023-02-28T12:41:27;22.95;21.53
22917;DHT22;11624;53.250;7.456;2023-02-28T12:44:01;23.40;22.66
22917;DHT22;11624;53.250;7.456;2023-02-28T12:46:34;24.05;20.60
22917;DHT22;11624;53.250;7.456;2023-02-28T12:49:09;24.33;19.89
22917;DHT22;11624;53.250;7.456;2023-02-28T12:51:38;24.63;19.63
22917;DHT22;11624;53.250;7.456;2023-02-28T12:54:18;24.15;18.02
22917;DHT22;11624;53.250;7.456;2023-02-28T12:56:50;23.23;20.73
22917;DHT22;11624;53.250;7.456;2023-02-28T12:59:25;23.54;19.76
22917;DHT22;11624;53.250;7.456;2023-02-28T13:02:02;23.99;19.18
22917;DHT22;11624;53.250;7.456;2023-02-28T13:04:52;24.48;18.60
22917;DHT22;11624;53.250;7.456;2023-02-28T13:07:36;24.57;16.46
22917;DHT22;11624;53.250;7.456;2023-02-28T13:10:09;24.40;17.31
22917;DHT22;11624;53.250;7.456;2023-02-28T13:12:47;24.15;17.71
22917;DHT22;11624;53.250;7.456;2023-02-28T13:15:19;24.26;17.93
22917;DHT22;11624;53.250;7.456;2023-02-28T13:17:53;23.81;18.03
22917;DHT22;11624;53.250;7.456;2023-02-28T13:20:24;23.92;16.90
22917;DHT22;11624;53.250;7.456;2023-02-28T13:22:54;23.81;17.90
22917;DHT22;11624;53.250;7.456;2023-02-28T13:25:51;23.91;17.86
22917;DHT22;11624;53.250;7.456;2023-02-28T13:34:42;24.17;16.67
22917;DHT22;11624;53.250;7.456;2023-02-28T13:37:35;24.44;16.91
22917;DHT22;11624;53.250;7.456;2023-02-28T13:40:30;24.62;17.01
22917;DHT22;11624;53.250;7.456;2023-02-28T13:43:08;24.08;17.47
22917;DHT22;11624;53.250;7.456;2023-02-28T13:45:36;24.03;18.28
22917;DHT22;11624;53.250;7.456;2023-02-28T13:48:16;23.99;17.61
22917;DHT22;11624;53.250;7.456;2023-02-28T13:50:45;23.79;16.96
22917;DHT22;11624;53.250;7.456;2023-02-28T13:53:37;23.30;17.66
22917;DHT22;11624;53.250;7.456;2023-02-28T13:56:21;22.86;18.01
22917;DHT22;11624;53.250;7.456;2023-02-28T13:58:54;22.71;18.86
22917;DHT22;11624;53.250;7.456;2023-02-28T14:01:51;22.81;19.41
22917;DHT22;11624;53.250;7.456;2023-02-28T14:04:46;22.86;18.53
22917;DHT22;11624;53.250;7.456;2023-02-28T14:07:19;23.12;18.48
22917;DHT22;11624;53.250;7.456;2023-02-28T14:09:56;22.91;17.96
22917;DHT22;11624;53.250;7.456;2023-02-28T14:12:57;23.01;19.10
22917;DHT22;11624;53.250;7.456;2023-02-28T14:18:17;23.37;17.85
22917;DHT22;11624;53.250;7.456;2023-02-28T14:20:48;23.15;17.57
22917;DHT22;11624;53.250;7.456;2023-02-28T14:23:34;22.66;18.52
22917;DHT22;11624;53.250;7.456;2023-02-28T14:26:16;22.66;19.13
22917;DHT22;11624;53.250;7.456;2023-02-28T14:29:00;22.64;18.38
22917;DHT22;11624;53.250;7.456;2023-02-28T14:31:34;22.12;18.83
22917;DHT22;11624;53.250;7.456;2023-02-28T14:34:17;21.39;19.19
22917;DHT22;11624;53.250;7.456;2023-02-28T14:36:49;20.50;20.59
22917;DHT22;11624;53.250;7.456;2023-02-28T14:39:20;19.95;22.27
22917;DHT22;11624;53.250;7.456;2023-02-28T14:41:51;19.83;21.76
22917;DHT22;11624;53.250;7.456;2023-02-28T14:44:21;19.70;22.23
22917;DHT22;11624;53.250;7.456;2023-02-28T14:46:52;19.41;22.56
22917;DHT22;11624;53.250;7.456;2023-02-28T14:49:23;19.47;22.75
22917;DHT22;11624;53.250;7.456;2023-02-28T14:52:03;19.88;22.63
22917;DHT22;11624;53.250;7.456;2023-02-28T14:54:33;20.24;22.38
22917;DHT22;11624;53.250;7.456;2023-02-28T14:57:03;20.47;21.92
22917;DHT22;11624;53.250;7.456;2023-02-28T14:59:33;20.46;21.78
22917;DHT22;11624;53.250;7.456;2023-02-28T15:02:19;20.62;22.32
22917;DHT22;11624;53.250;7.456;2023-02-28T15:04:56;20.84;21.98
22917;DHT22;11624;53.250;7.456;2023-02-28T15:07:24;21.02;21.69
22917;DHT22;11624;53.250;7.456;2023-02-28T15:10:11;21.22;21.21
22917;DHT22;11624;53.250;7.456;2023-02-28T15:12:41;21.36;20.34
22917;DHT22;11624;53.250;7.456;2023-02-28T15:15:16;21.37;20.35
22917;DHT22;11624;53.250;7.456;2023-02-28T15:17:46;21.43;20.47
22917;DHT22;11624;53.250;7.456;2023-02-28T15:20:17;21.21;20.09
22917;DHT22;11624;53.250;7.456;2023-02-28T15:22:47;21.03;20.61
22917;DHT22;11624;53.250;7.456;2023-02-28T15:25:19;20.57;20.99
22917;DHT22;11624;53.250;7.456;2023-02-28T15:27:50;20.53;20.25
22917;DHT22;11624;53.250;7.456;2023-02-28T15:30:24;20.11;20.53
22917;DHT22;11624;53.250;7.456;2023-02-28T15:33:04;19.65;21.18
22917;DHT22;11624;53.250;7.456;2023-02-28T15:35:33;19.28;21.79
22917;DHT22;11624;53.250;7.456;2023-02-28T15:38:03;18.83;22.67
22917;DHT22;11624;53.250;7.456;2023-02-28T15:40:42;18.43;23.03
22917;DHT22;11624;53.250;7.456;2023-02-28T15:43:17;18.12;23.56
22917;DHT22;11624;53.250;7.456;2023-02-28T15:45:46;17.92;24.15
22917;DHT22;11624;53.250;7.456;2023-02-28T15:48:18;17.64;24.94
22917;DHT22;11624;53.250;7.456;2023-02-28T15:50:49;17.38;25.76
22917;DHT22;11624;53.250;7.456;2023-02-28T15:53:19;17.16;26.48
22917;DHT22;11624;53.250;7.456;2023-02-28T15:55:57;16.95;27.35
22917;DHT22;11624;53.250;7.456;2023-02-28T15:58:28;16.78;27.99
22917;DHT22;11624;53.250;7.456;2023-02-28T16:01:04;16.57;28.14
22917;DHT22;11624;53.250;7.456;2023-02-28T16:03:44;16.39;28.09
22917;DHT22;11624;53.250;7.456;2023-02-28T16:06:34;16.29;28.42
22917;DHT22;11624;53.250;7.456;2023-02-28T16:09:04;16.26;28.87
22917;DHT22;11624;53.250;7.456;2023-02-28T16:11:37;16.21;28.71
22917;DHT22;11624;53.250;7.456;2023-02-28T16:14:12;16.08;29.08
22917;DHT22;11624;53.250;7.456;2023-02-28T16:16:46;15.97;29.31
22917;DHT22;11624;53.250;7.456;2023-02-28T16:19:14;15.83;29.57
22917;DHT22;11624;53.250;7.456;2023-02-28T16:21:43;15.72;29.97